createdAt,value
2022-10-17T00:01:30.719Z,4.27
2022-10-17T00:03:57.160Z,4.17
2022-10-17T00:06:23.579Z,4.37
2022-10-17T00:08:49.995Z,4.63
2022-10-17T00:11:19.318Z,4.80
2022-10-17T00:13:46.983Z,4.60
2022-10-17T00:16:13.981Z,4.10
2022-10-17T00:18:40.752Z,4.57
2022-10-17T00:21:15.334Z,4.20
2022-10-17T00:23:41.679Z,4.57
2022-10-17T00:26:08.038Z,4.87
2022-10-17T00:28:34.467Z,4.80
2022-10-17T00:31:04.413Z,4.60
2022-10-17T00:33:32.297Z,4.73
2022-10-17T00:36:09.370Z,4.30
2022-10-17T00:38:37.105Z,4.63
2022-10-17T00:41:04.517Z,4.60
2022-10-17T00:43:56.552Z,4.80
2022-10-17T00:46:26.047Z,5.00
2022-10-17T00:48:54.602Z,4.60
2022-10-17T00:51:27.581Z,4.70
2022-10-17T00:53:54.001Z,5.07
2022-10-17T00:56:21.199Z,4.67
2022-10-17T00:58:48.115Z,4.70
2022-10-17T01:01:14.683Z,4.57
2022-10-17T01:03:41.200Z,5.00
2022-10-17T01:06:07.599Z,5.20
2022-10-17T01:08:34.581Z,5.80
2022-10-17T01:11:13.666Z,5.00
2022-10-17T01:13:51.738Z,5.40
2022-10-17T01:16:31.629Z,5.17
2022-10-17T01:19:36.336Z,5.23
2022-10-17T01:22:22.810Z,4.60
2022-10-17T01:25:07.926Z,4.97
2022-10-17T01:27:46.990Z,5.40
2022-10-17T01:31:04.563Z,5.43
2022-10-17T01:33:33.453Z,5.27
2022-10-17T01:36:23.785Z,5.37
2022-10-17T01:39:02.094Z,4.60
2022-10-17T01:41:37.258Z,5.63
2022-10-17T01:44:19.546Z,5.50
2022-10-17T01:46:52.207Z,5.17
2022-10-17T01:49:23.802Z,5.87
2022-10-17T01:51:56.460Z,5.60
2022-10-17T01:54:28.613Z,5.90
2022-10-17T01:57:03.686Z,5.30
2022-10-17T01:59:47.222Z,6.13
2022-10-17T02:02:15.519Z,6.10
2022-10-17T02:04:43.010Z,5.63
2022-10-17T02:07:11.316Z,5.30
2022-10-17T02:09:38.366Z,5.93
2022-10-17T02:12:13.739Z,6.10
2022-10-17T02:14:52.487Z,5.70
2022-10-17T02:17:43.562Z,6.30
2022-10-17T02:20:20.296Z,6.00
2022-10-17T02:22:57.406Z,6.10
2022-10-17T02:25:35.614Z,6.40
2022-10-17T02:28:19.916Z,6.03
2022-10-17T02:30:56.083Z,6.50
2022-10-17T02:33:35.068Z,6.00
2022-10-17T02:36:08.797Z,5.77
2022-10-17T02:38:35.614Z,6.10
2022-10-17T02:41:03.616Z,6.03
2022-10-17T02:43:30.217Z,6.13
2022-10-17T02:45:57.242Z,5.50
2022-10-17T02:48:42.366Z,6.17
2022-10-17T02:51:37.779Z,5.87
2022-10-17T02:54:26.496Z,6.07
2022-10-17T02:57:02.273Z,6.50
2022-10-17T03:02:04.113Z,6.00
2022-10-17T03:04:30.479Z,5.90
2022-10-17T03:06:56.893Z,5.63
2022-10-17T03:09:23.251Z,6.00
2022-10-17T03:11:49.606Z,6.27
2022-10-17T03:14:15.976Z,6.40
2022-10-17T03:16:42.374Z,6.60
2022-10-17T03:19:08.841Z,5.87
2022-10-17T03:21:37.374Z,6.33
2022-10-17T03:24:04.744Z,6.40
2022-10-17T03:26:31.159Z,5.87
2022-10-17T03:28:57.634Z,6.27
2022-10-17T03:31:24.088Z,6.30
2022-10-17T03:33:50.442Z,6.17
2022-10-17T03:36:18.291Z,6.53
2022-10-17T03:38:45.285Z,5.73
2022-10-17T03:41:12.324Z,6.37
2022-10-17T03:43:42.247Z,6.47
2022-10-17T03:46:08.735Z,6.60
2022-10-17T03:48:35.175Z,6.23
2022-10-17T03:51:04.218Z,6.50
2022-10-17T03:53:30.853Z,6.83
2022-10-17T03:55:57.960Z,5.40
2022-10-17T03:58:24.385Z,6.37
2022-10-17T04:00:50.840Z,6.50
2022-10-17T04:03:17.514Z,6.10
2022-10-17T04:05:43.931Z,5.73
2022-10-17T04:08:10.310Z,5.83
2022-10-17T04:10:36.669Z,5.83
2022-10-17T04:13:03.108Z,6.50
2022-10-17T04:15:29.453Z,6.00
2022-10-17T04:17:55.896Z,6.17
2022-10-17T04:20:22.355Z,6.30
2022-10-17T04:22:48.713Z,5.57
2022-10-17T04:25:15.239Z,5.50
2022-10-17T04:27:41.595Z,5.97
2022-10-17T04:30:08.213Z,5.50
2022-10-17T04:32:38.561Z,5.43
2022-10-17T04:35:05.429Z,6.33
2022-10-17T04:37:31.821Z,6.17
2022-10-17T04:39:58.177Z,5.63
2022-10-17T04:42:24.546Z,6.37
2022-10-17T04:44:50.905Z,6.57
2022-10-17T04:47:17.250Z,5.87
2022-10-17T04:49:43.617Z,6.27
2022-10-17T04:52:09.976Z,6.13
2022-10-17T04:54:36.343Z,6.17
2022-10-17T04:57:02.748Z,6.80
2022-10-17T04:59:29.248Z,6.43
2022-10-17T05:01:55.629Z,6.13
2022-10-17T05:04:24.712Z,6.40
2022-10-17T05:06:51.478Z,5.97
2022-10-17T05:09:17.991Z,5.73
2022-10-17T05:11:44.384Z,6.23
2022-10-17T05:14:10.757Z,6.10
2022-10-17T05:16:37.173Z,6.50
2022-10-17T05:19:03.601Z,6.53
2022-10-17T05:21:30.690Z,6.53
2022-10-17T05:23:57.646Z,6.03
2022-10-17T05:26:24.770Z,6.63
2022-10-17T05:28:52.589Z,6.20
2022-10-17T05:31:19.304Z,6.00
2022-10-17T05:33:45.941Z,6.30
2022-10-17T05:36:12.459Z,5.93
2022-10-17T05:38:38.877Z,6.57
2022-10-17T05:41:06.160Z,6.17
2022-10-17T05:43:34.111Z,6.67
2022-10-17T05:46:04.496Z,6.10
2022-10-17T05:48:30.931Z,6.20
2022-10-17T05:50:59.803Z,6.20
2022-10-17T05:53:26.513Z,5.70
2022-10-17T05:56:00.349Z,5.97
2022-10-17T06:01:14.505Z,6.17
2022-10-17T06:03:40.991Z,6.27
2022-10-17T06:06:10.182Z,6.00
2022-10-17T06:08:36.947Z,5.90
2022-10-17T06:11:06.140Z,6.07
2022-10-17T06:13:35.639Z,6.23
2022-10-17T06:16:02.040Z,6.03
2022-10-17T06:18:28.501Z,6.07
2022-10-17T06:20:54.905Z,6.33
2022-10-17T06:23:21.340Z,6.30
2022-10-17T06:25:47.687Z,6.10
2022-10-17T06:28:14.056Z,5.90
2022-10-17T06:30:41.275Z,5.50
2022-10-17T06:33:07.682Z,6.30
2022-10-17T06:35:34.048Z,5.90
2022-10-17T06:38:00.440Z,6.13
2022-10-17T06:40:26.837Z,6.33
2022-10-17T06:42:53.328Z,6.53
2022-10-17T06:45:19.695Z,6.03
2022-10-17T06:47:46.053Z,5.57
2022-10-17T06:50:12.421Z,5.70
2022-10-17T06:52:39.403Z,5.60
2022-10-17T06:55:06.270Z,5.63
2022-10-17T06:57:32.719Z,6.03
2022-10-17T06:59:59.199Z,6.80
2022-10-17T07:02:25.910Z,5.70
2022-10-17T07:04:52.515Z,5.90
2022-10-17T07:07:19.369Z,6.17
2022-10-17T07:09:45.721Z,5.77
2022-10-17T07:12:12.812Z,5.70
2022-10-17T07:14:39.267Z,5.80
2022-10-17T07:17:05.731Z,5.30
2022-10-17T07:19:32.413Z,6.27
2022-10-17T07:21:58.823Z,5.87
2022-10-17T07:24:25.326Z,5.67
2022-10-17T07:26:51.698Z,5.83
2022-10-17T07:29:18.134Z,5.40
2022-10-17T07:31:45.662Z,5.70
2022-10-17T07:34:12.080Z,5.30
2022-10-17T07:36:38.449Z,5.73
2022-10-17T07:39:04.956Z,5.60
2022-10-17T07:41:31.356Z,5.67
2022-10-17T07:43:57.992Z,6.30
2022-10-17T07:46:24.359Z,5.63
2022-10-17T07:48:51.161Z,5.70
2022-10-17T07:51:19.998Z,5.40
2022-10-17T07:53:48.779Z,5.50
2022-10-17T07:56:15.498Z,6.37
2022-10-17T07:58:41.867Z,5.87
2022-10-17T08:01:15.434Z,6.00
2022-10-17T08:03:44.752Z,6.03
2022-10-17T08:06:11.771Z,5.90
2022-10-17T08:08:38.197Z,5.67
2022-10-17T08:11:07.205Z,6.13
2022-10-17T08:13:34.053Z,6.30
2022-10-17T08:16:07.398Z,5.90
2022-10-17T08:18:35.033Z,5.87
2022-10-17T08:21:08.374Z,5.97
2022-10-17T08:23:35.947Z,5.10
2022-10-17T08:26:04.637Z,5.77
2022-10-17T08:28:31.128Z,5.47
2022-10-17T08:31:08.273Z,5.60
2022-10-17T08:33:35.135Z,5.50
2022-10-17T08:36:01.853Z,5.73
2022-10-17T08:38:31.998Z,5.90
2022-10-17T08:41:05.193Z,5.67
2022-10-17T08:43:47.581Z,4.80
2022-10-17T08:48:46.535Z,5.63
2022-10-17T08:51:13.212Z,5.93
2022-10-17T08:53:39.584Z,5.23
2022-10-17T08:56:19.840Z,4.90
2022-10-17T08:58:51.790Z,6.20
2022-10-17T09:01:24.277Z,5.70
2022-10-17T09:04:23.896Z,5.50
2022-10-17T09:07:16.384Z,5.60
2022-10-17T09:10:17.085Z,5.47
2022-10-17T09:12:43.379Z,5.87
2022-10-17T09:15:34.057Z,6.30
2022-10-17T09:18:13.202Z,6.20
2022-10-17T09:20:47.503Z,5.97
2022-10-17T09:23:19.882Z,6.27
2022-10-17T09:25:53.712Z,5.97
2022-10-17T09:28:33.433Z,5.93
2022-10-17T09:31:03.252Z,5.60
2022-10-17T09:33:59.972Z,5.50
2022-10-17T09:36:33.771Z,5.33
2022-10-17T09:39:12.781Z,5.80
2022-10-17T09:41:45.820Z,5.77
2022-10-17T09:44:21.675Z,6.07
2022-10-17T09:47:02.891Z,5.63
2022-10-17T09:49:34.328Z,6.00
2022-10-17T09:52:03.238Z,5.93
2022-10-17T09:54:43.523Z,5.77
2022-10-17T09:57:12.453Z,5.23
2022-10-17T09:59:47.647Z,5.50
2022-10-17T10:02:13.930Z,5.30
2022-10-17T10:05:07.564Z,5.80
2022-10-17T10:07:37.712Z,5.60
2022-10-17T10:10:07.581Z,5.37
2022-10-17T10:12:39.213Z,5.40
2022-10-17T10:15:31.182Z,5.80
2022-10-17T10:17:57.585Z,6.10
2022-10-17T10:20:28.285Z,5.27
2022-10-17T10:23:05.176Z,5.80
2022-10-17T10:25:31.562Z,5.37
2022-10-17T10:28:00.666Z,5.47
2022-10-17T10:30:32.796Z,5.13
2022-10-17T10:33:01.571Z,5.73
2022-10-17T10:35:36.290Z,5.77
2022-10-17T10:38:14.061Z,5.10
2022-10-17T10:40:52.986Z,5.00
2022-10-17T10:43:22.443Z,5.70
2022-10-17T10:45:49.438Z,5.60
2022-10-17T10:48:24.571Z,5.57
2022-10-17T10:51:23.520Z,4.70
2022-10-17T10:53:59.689Z,5.03
2022-10-17T10:56:33.906Z,5.33
2022-10-17T10:59:25.447Z,5.33
2022-10-17T11:01:55.021Z,5.70
2022-10-17T11:04:44.586Z,6.30
2022-10-17T11:07:22.559Z,5.07
2022-10-17T11:10:00.839Z,4.97
2022-10-17T11:12:38.943Z,5.77
2022-10-17T11:15:18.205Z,5.07
2022-10-17T11:18:22.148Z,5.67
2022-10-17T11:21:01.565Z,5.30
2022-10-17T11:23:34.289Z,5.73
2022-10-17T11:26:08.540Z,5.60
2022-10-17T11:28:35.115Z,5.77
2022-10-17T11:31:07.180Z,6.30
2022-10-17T11:33:46.625Z,5.80
2022-10-17T11:36:16.784Z,5.87
2022-10-17T11:38:46.769Z,6.03
2022-10-17T11:41:21.233Z,6.53
2022-10-17T11:43:57.509Z,6.83
2022-10-17T11:46:26.810Z,5.80
2022-10-17T11:49:19.826Z,5.87
2022-10-17T11:52:44.033Z,5.70
2022-10-17T11:55:18.574Z,5.73
2022-10-17T11:58:10.012Z,6.23
2022-10-17T12:00:49.895Z,5.57
2022-10-17T12:03:41.382Z,5.83
2022-10-17T12:06:46.881Z,5.90
2022-10-17T12:09:25.454Z,6.73
2022-10-17T12:11:58.153Z,6.33
2022-10-17T12:14:37.137Z,6.13
2022-10-17T12:17:06.000Z,6.30
2022-10-17T12:19:35.118Z,7.07
2022-10-17T12:22:23.414Z,6.13
2022-10-17T12:24:55.089Z,6.23
2022-10-17T12:27:43.622Z,6.10
2022-10-17T12:30:13.517Z,6.20
2022-10-17T12:33:07.438Z,7.10
2022-10-17T12:35:36.309Z,6.70
2022-10-17T12:38:17.600Z,6.53
2022-10-17T12:40:48.490Z,7.07
2022-10-17T12:43:15.381Z,6.70
2022-10-17T12:45:55.838Z,6.53
2022-10-17T12:48:34.372Z,6.30
2022-10-17T12:51:34.042Z,6.33
2022-10-17T12:54:15.871Z,6.47
2022-10-17T12:56:45.760Z,7.13
2022-10-17T12:59:25.787Z,6.73
2022-10-17T13:01:56.329Z,7.27
2022-10-17T13:04:23.955Z,7.27
2022-10-17T13:06:56.491Z,7.23
2022-10-17T13:09:28.310Z,7.00
2022-10-17T13:11:57.469Z,7.20
2022-10-17T13:14:25.613Z,7.10
2022-10-17T13:16:54.794Z,7.47
2022-10-17T13:19:24.896Z,8.47
2022-10-17T13:21:56.134Z,7.23
2022-10-17T13:24:34.786Z,7.93
2022-10-17T13:27:01.967Z,7.80
2022-10-17T13:29:30.829Z,7.47
2022-10-17T13:32:04.377Z,7.77
2022-10-17T13:34:32.639Z,7.50
2022-10-17T13:37:02.715Z,8.03
2022-10-17T13:39:45.628Z,9.30
2022-10-17T13:42:27.343Z,7.83
2022-10-17T13:44:55.022Z,9.30
2022-10-17T13:47:27.559Z,8.87
2022-10-17T13:49:55.688Z,8.57
2022-10-17T13:52:27.434Z,9.27
2022-10-17T13:54:55.758Z,8.23
2022-10-17T13:57:28.032Z,8.70
2022-10-17T14:00:09.868Z,8.17
2022-10-17T14:02:38.292Z,8.10
2022-10-17T14:05:23.610Z,8.30
2022-10-17T14:10:42.172Z,8.13
2022-10-17T14:13:20.919Z,8.53
2022-10-17T14:15:47.540Z,7.70
2022-10-17T14:18:19.601Z,7.07
2022-10-17T14:21:31.799Z,7.27
2022-10-17T14:23:38.460Z,7.33
2022-10-17T14:26:09.093Z,7.40
2022-10-17T14:28:36.093Z,7.70
2022-10-17T14:31:33.705Z,7.70
2022-10-17T14:34:02.860Z,7.60
2022-10-17T14:36:42.871Z,7.40
2022-10-17T14:39:20.596Z,7.67
2022-10-17T14:41:47.909Z,7.43
2022-10-17T14:44:25.563Z,7.60
2022-10-17T14:47:30.122Z,7.37
2022-10-17T14:49:52.412Z,7.23
2022-10-17T14:52:19.158Z,7.77
2022-10-17T14:54:49.688Z,7.73
2022-10-17T14:57:29.839Z,8.20
2022-10-17T14:59:57.311Z,7.00
2022-10-17T15:02:29.748Z,8.20
2022-10-17T15:04:56.523Z,8.40
2022-10-17T15:07:23.900Z,7.20
2022-10-17T15:09:52.709Z,8.07
2022-10-17T15:12:21.816Z,7.33
2022-10-17T15:14:48.538Z,7.80
2022-10-17T15:17:20.913Z,7.77
2022-10-17T15:19:48.073Z,8.37
2022-10-17T15:22:16.058Z,9.03
2022-10-17T15:24:42.535Z,9.60
2022-10-17T15:27:26.384Z,8.00
2022-10-17T15:29:53.044Z,8.83
2022-10-17T15:32:19.465Z,9.23
2022-10-17T15:34:45.895Z,9.13
2022-10-17T15:37:24.623Z,9.17
2022-10-17T15:39:55.033Z,9.10
2022-10-17T15:42:23.351Z,9.23
2022-10-17T15:44:50.262Z,9.10
2022-10-17T15:47:28.826Z,9.87
2022-10-17T15:49:55.612Z,9.23
2022-10-17T15:52:23.484Z,9.20
2022-10-17T15:54:49.847Z,9.90
2022-10-17T15:57:21.346Z,10.00
2022-10-17T15:59:49.145Z,10.27
2022-10-17T16:02:17.774Z,9.60
2022-10-17T16:04:44.950Z,9.90
2022-10-17T16:07:11.793Z,9.53
2022-10-17T16:09:38.220Z,9.57
2022-10-17T16:12:06.706Z,10.17
2022-10-17T16:14:33.087Z,9.97
2022-10-17T16:17:00.160Z,10.00
2022-10-17T16:19:29.793Z,10.97
2022-10-17T16:21:59.643Z,9.97
2022-10-17T16:24:28.857Z,9.83
2022-10-17T16:26:55.283Z,10.67
2022-10-17T16:29:21.682Z,10.17
2022-10-17T16:31:48.064Z,9.33
2022-10-17T16:34:15.564Z,10.43
2022-10-17T16:36:42.658Z,11.00
2022-10-17T16:39:09.432Z,11.60
2022-10-17T16:41:38.242Z,10.93
2022-10-17T16:44:07.226Z,11.00
2022-10-17T16:46:35.684Z,11.70
2022-10-17T16:49:04.669Z,11.40
2022-10-17T16:54:12.797Z,10.93
2022-10-17T16:56:39.220Z,9.93
2022-10-17T16:59:05.618Z,11.10
2022-10-17T17:01:32.046Z,11.83
2022-10-17T17:03:58.498Z,12.30
2022-10-17T17:06:29.409Z,12.17
2022-10-17T17:08:56.486Z,11.93
2022-10-17T17:11:25.024Z,11.53
2022-10-17T17:13:51.794Z,11.67
2022-10-17T17:16:23.331Z,10.93
2022-10-17T17:18:55.232Z,11.83
2022-10-17T17:21:21.857Z,11.73
2022-10-17T17:23:48.347Z,12.50
2022-10-17T17:26:17.659Z,12.57
2022-10-17T17:28:44.573Z,13.27
2022-10-17T17:31:17.154Z,13.67
2022-10-17T17:33:44.692Z,11.87
2022-10-17T17:36:14.975Z,13.27
2022-10-17T17:38:41.392Z,12.83
2022-10-17T17:41:07.828Z,11.67
2022-10-17T17:43:35.751Z,11.40
2022-10-17T17:46:02.311Z,11.67
2022-10-17T17:48:28.729Z,12.50
2022-10-17T17:50:55.109Z,12.17
2022-10-17T17:53:21.546Z,11.57
2022-10-17T17:55:47.914Z,11.23
2022-10-17T17:58:14.456Z,11.20
2022-10-17T18:00:40.981Z,12.03
2022-10-17T18:03:08.177Z,11.50
2022-10-17T18:05:34.647Z,12.67
2022-10-17T18:08:01.220Z,12.07
2022-10-17T18:10:29.317Z,11.73
2022-10-17T18:12:55.671Z,12.17
2022-10-17T18:15:22.107Z,13.07
2022-10-17T18:17:49.124Z,13.00
2022-10-17T18:20:15.855Z,13.70
2022-10-17T18:22:42.246Z,12.00
2022-10-17T18:25:08.776Z,11.53
2022-10-17T18:27:35.389Z,12.33
2022-10-17T18:30:01.731Z,13.50
2022-10-17T18:32:31.465Z,15.40
2022-10-17T18:34:58.499Z,12.20
2022-10-17T18:37:24.970Z,12.43
2022-10-17T18:39:53.993Z,12.37
2022-10-17T18:42:20.485Z,12.13
2022-10-17T18:44:47.369Z,11.60
2022-10-17T18:47:14.109Z,12.30
2022-10-17T18:49:40.472Z,12.07
2022-10-17T18:52:06.965Z,11.83
2022-10-17T18:54:34.632Z,11.23
2022-10-17T18:57:01.264Z,12.57
2022-10-17T18:59:27.712Z,11.77
2022-10-17T19:01:54.323Z,11.10
2022-10-17T19:04:20.819Z,11.37
2022-10-17T19:06:47.185Z,11.67
2022-10-17T19:09:14.696Z,12.07
2022-10-17T19:11:42.226Z,11.87
2022-10-17T19:14:13.389Z,12.50
2022-10-17T19:16:43.614Z,11.33
2022-10-17T19:19:17.292Z,12.73
2022-10-17T19:21:44.246Z,13.43
2022-10-17T19:24:19.775Z,13.83
2022-10-17T19:26:47.590Z,14.33
2022-10-17T19:29:15.268Z,13.20
2022-10-17T19:31:41.761Z,12.00
2022-10-17T19:34:08.229Z,13.07
2022-10-17T19:36:35.473Z,13.07
2022-10-17T19:39:08.574Z,13.13
2022-10-17T19:41:36.323Z,12.40
2022-10-17T19:44:02.796Z,13.07
2022-10-17T19:46:31.004Z,12.80
2022-10-17T19:48:57.828Z,12.13
2022-10-17T19:51:25.053Z,12.53
2022-10-17T19:53:52.864Z,12.53
2022-10-17T19:56:23.573Z,12.97
2022-10-17T19:58:50.845Z,12.40
2022-10-17T20:01:21.636Z,12.87
2022-10-17T20:03:48.430Z,12.93
2022-10-17T20:06:15.749Z,12.67
2022-10-17T20:08:42.312Z,12.93
2022-10-17T20:11:12.482Z,13.80
2022-10-17T20:13:39.571Z,11.57
2022-10-17T20:16:07.884Z,12.33
2022-10-17T20:18:35.138Z,13.20
2022-10-17T20:21:04.242Z,12.60
2022-10-17T20:23:30.776Z,14.03
2022-10-17T20:26:06.785Z,12.50
2022-10-17T20:28:46.107Z,14.00
2022-10-17T20:31:13.194Z,12.97
2022-10-17T20:33:41.429Z,12.23
2022-10-17T20:36:09.732Z,13.00
2022-10-17T20:38:36.308Z,12.43
2022-10-17T20:41:04.521Z,12.80
2022-10-17T20:43:31.245Z,11.83
2022-10-17T20:46:04.622Z,12.13
2022-10-17T20:48:37.389Z,12.17
2022-10-17T20:51:08.973Z,12.47
2022-10-17T20:53:37.412Z,12.07
2022-10-17T20:56:06.741Z,11.83
2022-10-17T20:58:33.342Z,12.00
2022-10-17T21:01:05.860Z,12.60
2022-10-17T21:03:35.323Z,12.70
2022-10-17T21:06:01.917Z,12.07
2022-10-17T21:08:28.285Z,12.47
2022-10-17T21:10:54.663Z,11.70
2022-10-17T21:13:21.116Z,12.27
2022-10-17T21:15:47.499Z,12.53
2022-10-17T21:18:13.853Z,12.23
2022-10-17T21:20:40.203Z,12.70
2022-10-17T21:23:06.612Z,12.10
2022-10-17T21:25:33.019Z,12.30
2022-10-17T21:27:59.519Z,12.37
2022-10-17T21:30:25.892Z,11.87
2022-10-17T21:32:55.621Z,12.03
2022-10-17T21:35:22.190Z,11.53
2022-10-17T21:37:48.857Z,12.37
2022-10-17T21:40:15.302Z,12.07
2022-10-17T21:42:41.629Z,11.40
2022-10-17T21:45:15.459Z,11.70
2022-10-17T21:48:11.104Z,11.87
2022-10-17T21:50:33.191Z,12.47
2022-10-17T21:52:59.559Z,12.43
2022-10-17T21:55:25.975Z,11.10
2022-10-17T21:57:52.383Z,10.67
2022-10-17T22:00:18.936Z,10.93
2022-10-17T22:02:45.311Z,11.33
2022-10-17T22:05:11.663Z,11.57
2022-10-17T22:07:38.098Z,12.63
2022-10-17T22:10:04.889Z,11.87
2022-10-17T22:12:31.585Z,11.87
2022-10-17T22:14:58.120Z,11.27
2022-10-17T22:17:24.480Z,12.23
2022-10-17T22:19:50.850Z,12.77
2022-10-17T22:22:17.205Z,12.40
2022-10-17T22:24:43.588Z,11.67
2022-10-17T22:27:10.369Z,11.50
2022-10-17T22:29:36.852Z,11.90
2022-10-17T22:32:03.261Z,11.87
2022-10-17T22:34:29.631Z,11.63
2022-10-17T22:36:56.119Z,11.20
2022-10-17T22:39:22.486Z,12.87
2022-10-17T22:41:48.863Z,11.53
2022-10-17T22:44:15.227Z,12.53
2022-10-17T22:46:41.713Z,11.57
2022-10-17T22:49:08.450Z,12.30
2022-10-17T22:51:34.922Z,12.93
2022-10-17T22:54:01.297Z,12.60
2022-10-17T22:56:27.748Z,11.50
2022-10-17T22:58:54.141Z,13.00
2022-10-17T23:01:23.527Z,11.97
2022-10-17T23:03:50.838Z,10.73
2022-10-17T23:06:17.631Z,12.20
2022-10-17T23:08:44.071Z,12.80
2022-10-17T23:11:12.302Z,12.37
2022-10-17T23:13:40.643Z,13.33
2022-10-17T23:16:08.089Z,12.60
2022-10-17T23:18:34.711Z,13.63
2022-10-17T23:21:01.274Z,12.87
2022-10-17T23:23:27.643Z,13.27
2022-10-17T23:25:54.037Z,11.80
2022-10-17T23:28:20.447Z,12.33
2022-10-17T23:30:46.856Z,11.93
2022-10-17T23:33:13.964Z,11.00
2022-10-17T23:35:41.139Z,11.83
2022-10-17T23:38:07.841Z,11.77
2022-10-17T23:40:35.252Z,12.70
2022-10-17T23:43:01.965Z,12.20
2022-10-17T23:45:28.390Z,11.30
2022-10-17T23:47:54.759Z,11.03
2022-10-17T23:50:21.119Z,10.60
2022-10-17T23:52:47.490Z,10.83
2022-10-17T23:55:13.889Z,11.83
2022-10-17T23:57:40.271Z,10.40
